sensor_id;sensor_type;location;lat;lon;timestamp;temperature;humidity
3996;DHT22;2012;49.794;9.722;2024-02-26T00:02:08;5.20;99.90
3996;DHT22;2012;49.794;9.722;2024-02-26T00:04:34;5.20;99.90
3996;DHT22;2012;49.794;9.722;2024-02-26T00:07:01;5.20;99.90
3996;DHT22;2012;49.794;9.722;2024-02-26T00:09:29;5.20;99.90
3996;DHT22;2012;49.794;9.722;2024-02-26T00:11:56;5.10;99.90
3996;DHT22;2012;49.794;9.722;2024-02-26T00:14:24;5.10;99.90
3996;DHT22;2012;49.794;9.722;2024-02-26T00:16:53;5.10;99.90
3996;DHT22;2012;49.794;9.722;2024-02-26T00:19:20;5.10;99.90
3996;DHT22;2012;49.794;9.722;2024-02-26T00:21:47;5.00;99.90
3996;DHT22;2012;49.794;9.722;2024-02-26T00:24:15;5.00;99.90
3996;DHT22;2012;49.794;9.722;2024-02-26T00:26:41;4.90;99.90
3996;DHT22;2012;49.794;9.722;2024-02-26T00:29:08;5.00;99.90
3996;DHT22;2012;49.794;9.722;2024-02-26T00:31:36;4.90;99.90
3996;DHT22;2012;49.794;9.722;2024-02-26T00:34:04;4.80;99.90
3996;DHT22;2012;49.794;9.722;2024-02-26T00:36:32;4.80;99.90
3996;DHT22;2012;49.794;9.722;2024-02-26T00:38:58;4.90;99.90
3996;DHT22;2012;49.794;9.722;2024-02-26T00:41:25;4.90;99.90
3996;DHT22;2012;49.794;9.722;2024-02-26T00:43:52;4.80;99.90
3996;DHT22;2012;49.794;9.722;2024-02-26T00:46:19;4.80;99.90
3996;DHT22;2012;49.794;9.722;2024-02-26T00:48:46;4.80;99.90
3996;DHT22;2012;49.794;9.722;2024-02-26T00:51:13;4.80;99.90
3996;DHT22;2012;49.794;9.722;2024-02-26T00:53:40;4.70;99.90
3996;DHT22;2012;49.794;9.722;2024-02-26T00:56:07;4.70;99.90
3996;DHT22;2012;49.794;9.722;2024-02-26T00:58:34;4.70;99.90
3996;DHT22;2012;49.794;9.722;2024-02-26T01:01:00;4.60;99.90
3996;DHT22;2012;49.794;9.722;2024-02-26T01:03:28;4.60;99.90
3996;DHT22;2012;49.794;9.722;2024-02-26T01:05:55;4.60;99.90
3996;DHT22;2012;49.794;9.722;2024-02-26T01:08:25;4.70;99.90
3996;DHT22;2012;49.794;9.722;2024-02-26T01:10:52;4.60;99.90
3996;DHT22;2012;49.794;9.722;2024-02-26T01:13:19;4.50;99.90
3996;DHT22;2012;49.794;9.722;2024-02-26T01:15:46;4.50;99.90
3996;DHT22;2012;49.794;9.722;2024-02-26T01:18:13;4.50;99.90
3996;DHT22;2012;49.794;9.722;2024-02-26T01:20:40;4.40;99.90
3996;DHT22;2012;49.794;9.722;2024-02-26T01:23:07;4.40;99.90
3996;DHT22;2012;49.794;9.722;2024-02-26T01:25:34;4.50;99.90
3996;DHT22;2012;49.794;9.722;2024-02-26T01:28:01;4.50;99.90
3996;DHT22;2012;49.794;9.722;2024-02-26T01:30:27;4.50;99.90
3996;DHT22;2012;49.794;9.722;2024-02-26T01:32:54;4.50;99.90
3996;DHT22;2012;49.794;9.722;2024-02-26T01:35:22;4.50;99.90
3996;DHT22;2012;49.794;9.722;2024-02-26T01:37:49;4.50;99.90
3996;DHT22;2012;49.794;9.722;2024-02-26T01:40:16;4.50;99.90
3996;DHT22;2012;49.794;9.722;2024-02-26T01:42:46;4.60;99.90
3996;DHT22;2012;49.794;9.722;2024-02-26T01:45:16;4.60;99.90
3996;DHT22;2012;49.794;9.722;2024-02-26T01:47:50;4.70;99.90
3996;DHT22;2012;49.794;9.722;2024-02-26T01:50:19;4.90;99.90
3996;DHT22;2012;49.794;9.722;2024-02-26T01:52:47;4.80;99.90
3996;DHT22;2012;49.794;9.722;2024-02-26T01:55:14;4.80;99.90
3996;DHT22;2012;49.794;9.722;2024-02-26T01:57:44;4.70;99.90
3996;DHT22;2012;49.794;9.722;2024-02-26T02:00:13;4.80;99.90
3996;DHT22;2012;49.794;9.722;2024-02-26T02:02:41;4.90;99.90
3996;DHT22;2012;49.794;9.722;2024-02-26T02:05:09;4.90;99.90
3996;DHT22;2012;49.794;9.722;2024-02-26T02:07:36;4.90;99.90
3996;DHT22;2012;49.794;9.722;2024-02-26T02:10:03;4.90;99.90
3996;DHT22;2012;49.794;9.722;2024-02-26T02:12:32;5.00;99.90
3996;DHT22;2012;49.794;9.722;2024-02-26T02:15:02;5.10;99.90
3996;DHT22;2012;49.794;9.722;2024-02-26T02:17:29;5.00;99.90
3996;DHT22;2012;49.794;9.722;2024-02-26T02:19:56;5.10;99.90
3996;DHT22;2012;49.794;9.722;2024-02-26T02:22:23;5.10;99.90
3996;DHT22;2012;49.794;9.722;2024-02-26T02:24:52;5.00;99.90
3996;DHT22;2012;49.794;9.722;2024-02-26T02:27:19;5.20;99.90
3996;DHT22;2012;49.794;9.722;2024-02-26T02:29:47;5.10;99.90
3996;DHT22;2012;49.794;9.722;2024-02-26T02:32:16;5.10;99.90
3996;DHT22;2012;49.794;9.722;2024-02-26T02:34:44;5.20;99.90
3996;DHT22;2012;49.794;9.722;2024-02-26T02:37:11;5.30;99.90
3996;DHT22;2012;49.794;9.722;2024-02-26T02:39:38;5.30;99.90
3996;DHT22;2012;49.794;9.722;2024-02-26T02:42:05;5.40;99.90
3996;DHT22;2012;49.794;9.722;2024-02-26T02:44:32;5.40;99.90
3996;DHT22;2012;49.794;9.722;2024-02-26T02:46:59;5.50;99.90
3996;DHT22;2012;49.794;9.722;2024-02-26T02:49:26;5.40;99.90
3996;DHT22;2012;49.794;9.722;2024-02-26T02:51:53;5.50;99.90
3996;DHT22;2012;49.794;9.722;2024-02-26T02:54:24;5.50;99.90
3996;DHT22;2012;49.794;9.722;2024-02-26T02:56:51;5.50;99.90
3996;DHT22;2012;49.794;9.722;2024-02-26T02:59:18;5.50;99.90
3996;DHT22;2012;49.794;9.722;2024-02-26T03:01:45;5.50;99.90
3996;DHT22;2012;49.794;9.722;2024-02-26T03:04:12;5.50;99.90
3996;DHT22;2012;49.794;9.722;2024-02-26T03:06:39;5.60;99.90
3996;DHT22;2012;49.794;9.722;2024-02-26T03:09:06;5.50;99.90
3996;DHT22;2012;49.794;9.722;2024-02-26T03:11:33;5.50;99.90
3996;DHT22;2012;49.794;9.722;2024-02-26T03:14:00;5.60;99.90
3996;DHT22;2012;49.794;9.722;2024-02-26T03:16:26;5.50;99.90
3996;DHT22;2012;49.794;9.722;2024-02-26T03:18:53;5.50;99.90
3996;DHT22;2012;49.794;9.722;2024-02-26T03:21:21;5.40;99.90
3996;DHT22;2012;49.794;9.722;2024-02-26T03:23:48;5.50;99.90
3996;DHT22;2012;49.794;9.722;2024-02-26T03:26:14;5.50;99.90
3996;DHT22;2012;49.794;9.722;2024-02-26T03:28:42;5.50;99.90
3996;DHT22;2012;49.794;9.722;2024-02-26T03:31:08;5.40;99.90
3996;DHT22;2012;49.794;9.722;2024-02-26T03:33:37;5.40;99.90
3996;DHT22;2012;49.794;9.722;2024-02-26T03:36:04;5.30;99.90
3996;DHT22;2012;49.794;9.722;2024-02-26T03:38:32;5.30;99.90
3996;DHT22;2012;49.794;9.722;2024-02-26T03:40:58;5.30;99.90
3996;DHT22;2012;49.794;9.722;2024-02-26T03:43:28;5.40;99.90
3996;DHT22;2012;49.794;9.722;2024-02-26T03:45:55;5.30;99.90
3996;DHT22;2012;49.794;9.722;2024-02-26T03:48:22;5.30;99.90
3996;DHT22;2012;49.794;9.722;2024-02-26T03:50:49;5.40;99.90
3996;DHT22;2012;49.794;9.722;2024-02-26T03:53:16;5.30;99.90
3996;DHT22;2012;49.794;9.722;2024-02-26T03:55:43;5.40;99.90
3996;DHT22;2012;49.794;9.722;2024-02-26T03:58:12;5.30;99.90
3996;DHT22;2012;49.794;9.722;2024-02-26T04:00:39;5.30;99.90
3996;DHT22;2012;49.794;9.722;2024-02-26T04:03:06;5.20;99.90
3996;DHT22;2012;49.794;9.722;2024-02-26T04:05:33;5.30;99.90
3996;DHT22;2012;49.794;9.722;2024-02-26T04:07:59;5.20;99.90
3996;DHT22;2012;49.794;9.722;2024-02-26T04:10:26;5.10;99.90
3996;DHT22;2012;49.794;9.722;2024-02-26T04:12:53;5.10;99.90
3996;DHT22;2012;49.794;9.722;2024-02-26T04:15:20;5.20;99.90
3996;DHT22;2012;49.794;9.722;2024-02-26T04:17:47;5.20;99.90
3996;DHT22;2012;49.794;9.722;2024-02-26T04:20:15;5.10;99.90
3996;DHT22;2012;49.794;9.722;2024-02-26T04:22:42;5.10;99.90
3996;DHT22;2012;49.794;9.722;2024-02-26T04:25:09;5.00;99.90
3996;DHT22;2012;49.794;9.722;2024-02-26T04:27:36;5.10;99.90
3996;DHT22;2012;49.794;9.722;2024-02-26T04:30:05;5.20;99.90
3996;DHT22;2012;49.794;9.722;2024-02-26T04:32:32;5.10;99.90
3996;DHT22;2012;49.794;9.722;2024-02-26T04:34:59;5.10;99.90
3996;DHT22;2012;49.794;9.722;2024-02-26T04:37:26;5.20;99.90
3996;DHT22;2012;49.794;9.722;2024-02-26T04:39:58;5.20;99.90
3996;DHT22;2012;49.794;9.722;2024-02-26T04:42:27;5.30;99.90
3996;DHT22;2012;49.794;9.722;2024-02-26T04:44:55;5.20;99.90
3996;DHT22;2012;49.794;9.722;2024-02-26T04:47:22;5.20;99.90
3996;DHT22;2012;49.794;9.722;2024-02-26T04:49:49;5.20;99.90
3996;DHT22;2012;49.794;9.722;2024-02-26T04:52:18;5.20;99.90
3996;DHT22;2012;49.794;9.722;2024-02-26T04:54:45;5.20;99.90
3996;DHT22;2012;49.794;9.722;2024-02-26T04:57:12;5.10;99.90
3996;DHT22;2012;49.794;9.722;2024-02-26T04:59:39;5.10;99.90
3996;DHT22;2012;49.794;9.722;2024-02-26T05:02:07;5.20;99.90
3996;DHT22;2012;49.794;9.722;2024-02-26T05:04:34;5.10;99.90
3996;DHT22;2012;49.794;9.722;2024-02-26T05:07:01;5.10;99.90
3996;DHT22;2012;49.794;9.722;2024-02-26T05:09:28;5.20;99.90
3996;DHT22;2012;49.794;9.722;2024-02-26T05:11:55;5.20;99.90
3996;DHT22;2012;49.794;9.722;2024-02-26T05:14:22;5.20;99.90
3996;DHT22;2012;49.794;9.722;2024-02-26T05:16:49;5.10;99.90
3996;DHT22;2012;49.794;9.722;2024-02-26T05:19:16;5.00;99.90
3996;DHT22;2012;49.794;9.722;2024-02-26T05:21:43;5.00;99.90
3996;DHT22;2012;49.794;9.722;2024-02-26T05:24:11;5.10;99.90
3996;DHT22;2012;49.794;9.722;2024-02-26T05:26:38;5.00;99.90
3996;DHT22;2012;49.794;9.722;2024-02-26T05:29:05;5.10;99.90
3996;DHT22;2012;49.794;9.722;2024-02-26T05:31:32;5.10;99.90
3996;DHT22;2012;49.794;9.722;2024-02-26T05:33:59;5.10;99.90
3996;DHT22;2012;49.794;9.722;2024-02-26T05:36:26;5.10;99.90
3996;DHT22;2012;49.794;9.722;2024-02-26T05:38:55;5.10;99.90
3996;DHT22;2012;49.794;9.722;2024-02-26T05:41:22;5.10;99.90
3996;DHT22;2012;49.794;9.722;2024-02-26T05:43:53;5.00;99.90
3996;DHT22;2012;49.794;9.722;2024-02-26T05:46:21;5.00;99.90
3996;DHT22;2012;49.794;9.722;2024-02-26T05:48:50;5.10;99.90
3996;DHT22;2012;49.794;9.722;2024-02-26T05:51:18;5.10;99.90
3996;DHT22;2012;49.794;9.722;2024-02-26T05:53:45;5.10;99.90
3996;DHT22;2012;49.794;9.722;2024-02-26T05:56:13;5.10;99.90
3996;DHT22;2012;49.794;9.722;2024-02-26T05:58:40;5.10;99.90
3996;DHT22;2012;49.794;9.722;2024-02-26T06:01:07;5.00;99.90
3996;DHT22;2012;49.794;9.722;2024-02-26T06:03:34;5.20;99.90
3996;DHT22;2012;49.794;9.722;2024-02-26T06:06:01;5.20;99.90
3996;DHT22;2012;49.794;9.722;2024-02-26T06:08:28;5.10;99.90
3996;DHT22;2012;49.794;9.722;2024-02-26T06:10:55;5.10;99.90
3996;DHT22;2012;49.794;9.722;2024-02-26T06:13:22;5.10;99.90
3996;DHT22;2012;49.794;9.722;2024-02-26T06:15:49;5.10;99.90
3996;DHT22;2012;49.794;9.722;2024-02-26T06:18:16;5.10;99.90
3996;DHT22;2012;49.794;9.722;2024-02-26T06:20:43;5.20;99.90
3996;DHT22;2012;49.794;9.722;2024-02-26T06:23:10;5.10;99.90
3996;DHT22;2012;49.794;9.722;2024-02-26T06:25:37;5.20;99.90
3996;DHT22;2012;49.794;9.722;2024-02-26T06:28:04;5.20;99.90
3996;DHT22;2012;49.794;9.722;2024-02-26T06:30:31;5.20;99.90
3996;DHT22;2012;49.794;9.722;2024-02-26T06:32:58;5.20;99.90
3996;DHT22;2012;49.794;9.722;2024-02-26T06:35:26;5.20;99.90
3996;DHT22;2012;49.794;9.722;2024-02-26T06:37:53;5.20;99.90
3996;DHT22;2012;49.794;9.722;2024-02-26T06:40:20;5.30;99.90
3996;DHT22;2012;49.794;9.722;2024-02-26T06:42:47;5.30;99.90
3996;DHT22;2012;49.794;9.722;2024-02-26T06:45:15;5.30;99.90
3996;DHT22;2012;49.794;9.722;2024-02-26T06:47:42;5.30;99.90
3996;DHT22;2012;49.794;9.722;2024-02-26T06:50:11;5.40;99.90
3996;DHT22;2012;49.794;9.722;2024-02-26T06:52:38;5.50;99.90
3996;DHT22;2012;49.794;9.722;2024-02-26T06:55:05;5.50;99.90
3996;DHT22;2012;49.794;9.722;2024-02-26T06:57:34;5.60;99.90
3996;DHT22;2012;49.794;9.722;2024-02-26T07:00:01;5.60;99.90
3996;DHT22;2012;49.794;9.722;2024-02-26T07:02:31;5.50;99.90
3996;DHT22;2012;49.794;9.722;2024-02-26T07:04:58;5.60;99.90
3996;DHT22;2012;49.794;9.722;2024-02-26T07:07:25;5.60;99.90
3996;DHT22;2012;49.794;9.722;2024-02-26T07:09:52;5.60;99.90
3996;DHT22;2012;49.794;9.722;2024-02-26T07:12:19;5.60;99.90
3996;DHT22;2012;49.794;9.722;2024-02-26T07:14:48;5.70;99.90
3996;DHT22;2012;49.794;9.722;2024-02-26T07:17:16;5.70;99.90
3996;DHT22;2012;49.794;9.722;2024-02-26T07:19:43;5.70;99.90
3996;DHT22;2012;49.794;9.722;2024-02-26T07:22:10;5.70;99.90
3996;DHT22;2012;49.794;9.722;2024-02-26T07:24:37;5.70;99.90
3996;DHT22;2012;49.794;9.722;2024-02-26T07:27:04;5.70;99.90
3996;DHT22;2012;49.794;9.722;2024-02-26T07:29:31;5.70;99.90
3996;DHT22;2012;49.794;9.722;2024-02-26T07:31:58;5.80;99.90
3996;DHT22;2012;49.794;9.722;2024-02-26T07:34:25;5.80;99.90
3996;DHT22;2012;49.794;9.722;2024-02-26T07:36:56;5.90;99.90
3996;DHT22;2012;49.794;9.722;2024-02-26T07:39:23;5.80;99.90
3996;DHT22;2012;49.794;9.722;2024-02-26T07:41:50;5.90;99.90
3996;DHT22;2012;49.794;9.722;2024-02-26T07:44:20;5.80;99.90
3996;DHT22;2012;49.794;9.722;2024-02-26T07:46:47;5.90;99.90
3996;DHT22;2012;49.794;9.722;2024-02-26T07:49:14;5.80;99.90
3996;DHT22;2012;49.794;9.722;2024-02-26T07:51:41;5.90;99.90
3996;DHT22;2012;49.794;9.722;2024-02-26T07:54:08;5.80;99.90
3996;DHT22;2012;49.794;9.722;2024-02-26T07:56:35;5.80;99.90
3996;DHT22;2012;49.794;9.722;2024-02-26T07:59:02;5.80;99.90
3996;DHT22;2012;49.794;9.722;2024-02-26T08:01:29;5.90;99.90
3996;DHT22;2012;49.794;9.722;2024-02-26T08:03:56;5.90;99.90
3996;DHT22;2012;49.794;9.722;2024-02-26T08:06:23;5.90;99.90
3996;DHT22;2012;49.794;9.722;2024-02-26T08:08:51;6.00;99.90
3996;DHT22;2012;49.794;9.722;2024-02-26T08:11:20;5.90;99.90
3996;DHT22;2012;49.794;9.722;2024-02-26T08:13:47;5.80;99.90
3996;DHT22;2012;49.794;9.722;2024-02-26T08:16:14;5.90;99.90
3996;DHT22;2012;49.794;9.722;2024-02-26T08:18:41;6.00;99.90
3996;DHT22;2012;49.794;9.722;2024-02-26T08:21:08;6.00;99.90
3996;DHT22;2012;49.794;9.722;2024-02-26T08:23:35;6.00;99.90
3996;DHT22;2012;49.794;9.722;2024-02-26T08:26:03;6.00;99.90
3996;DHT22;2012;49.794;9.722;2024-02-26T08:28:33;5.90;99.90
3996;DHT22;2012;49.794;9.722;2024-02-26T08:31:01;6.00;99.90
3996;DHT22;2012;49.794;9.722;2024-02-26T08:33:28;6.00;99.90
3996;DHT22;2012;49.794;9.722;2024-02-26T08:35:55;6.10;99.90
3996;DHT22;2012;49.794;9.722;2024-02-26T08:38:22;6.00;99.90
3996;DHT22;2012;49.794;9.722;2024-02-26T08:40:49;6.00;99.90
3996;DHT22;2012;49.794;9.722;2024-02-26T08:43:16;6.10;99.90
3996;DHT22;2012;49.794;9.722;2024-02-26T08:45:44;6.20;99.90
3996;DHT22;2012;49.794;9.722;2024-02-26T08:48:11;6.10;99.90
3996;DHT22;2012;49.794;9.722;2024-02-26T08:50:38;6.20;99.90
3996;DHT22;2012;49.794;9.722;2024-02-26T08:53:05;6.20;99.90
3996;DHT22;2012;49.794;9.722;2024-02-26T08:55:34;6.30;99.90
3996;DHT22;2012;49.794;9.722;2024-02-26T08:58:00;6.30;99.90
3996;DHT22;2012;49.794;9.722;2024-02-26T09:00:27;6.30;99.90
3996;DHT22;2012;49.794;9.722;2024-02-26T09:02:55;6.20;99.90
3996;DHT22;2012;49.794;9.722;2024-02-26T09:05:22;6.20;99.90
3996;DHT22;2012;49.794;9.722;2024-02-26T09:07:49;6.30;99.90
3996;DHT22;2012;49.794;9.722;2024-02-26T09:10:19;6.30;99.90
3996;DHT22;2012;49.794;9.722;2024-02-26T09:12:46;6.30;99.90
3996;DHT22;2012;49.794;9.722;2024-02-26T09:15:13;6.30;99.90
3996;DHT22;2012;49.794;9.722;2024-02-26T09:17:40;6.40;99.90
3996;DHT22;2012;49.794;9.722;2024-02-26T09:20:07;6.40;99.90
3996;DHT22;2012;49.794;9.722;2024-02-26T09:22:36;6.50;99.90
3996;DHT22;2012;49.794;9.722;2024-02-26T09:25:05;6.50;99.90
3996;DHT22;2012;49.794;9.722;2024-02-26T09:27:33;6.60;99.90
3996;DHT22;2012;49.794;9.722;2024-02-26T09:30:00;6.60;99.90
3996;DHT22;2012;49.794;9.722;2024-02-26T09:32:27;6.70;99.90
3996;DHT22;2012;49.794;9.722;2024-02-26T09:34:54;6.70;99.90
3996;DHT22;2012;49.794;9.722;2024-02-26T09:37:21;6.80;99.90
3996;DHT22;2012;49.794;9.722;2024-02-26T09:39:48;6.70;99.90
3996;DHT22;2012;49.794;9.722;2024-02-26T09:42:18;6.70;99.90
3996;DHT22;2012;49.794;9.722;2024-02-26T09:44:46;6.70;99.90
3996;DHT22;2012;49.794;9.722;2024-02-26T09:47:14;6.70;99.90
3996;DHT22;2012;49.794;9.722;2024-02-26T09:49:44;6.80;99.90
3996;DHT22;2012;49.794;9.722;2024-02-26T09:52:12;6.80;99.90
3996;DHT22;2012;49.794;9.722;2024-02-26T09:54:41;6.90;99.90
3996;DHT22;2012;49.794;9.722;2024-02-26T09:57:10;7.00;99.90
3996;DHT22;2012;49.794;9.722;2024-02-26T09:59:43;7.00;99.90
3996;DHT22;2012;49.794;9.722;2024-02-26T10:02:14;7.10;99.90
3996;DHT22;2012;49.794;9.722;2024-02-26T10:04:42;7.00;99.90
3996;DHT22;2012;49.794;9.722;2024-02-26T10:07:16;7.00;99.90
3996;DHT22;2012;49.794;9.722;2024-02-26T10:09:44;7.00;99.90
3996;DHT22;2012;49.794;9.722;2024-02-26T10:12:11;7.00;99.90
3996;DHT22;2012;49.794;9.722;2024-02-26T10:14:39;7.10;99.90
3996;DHT22;2012;49.794;9.722;2024-02-26T10:17:09;7.10;99.90
3996;DHT22;2012;49.794;9.722;2024-02-26T10:19:37;7.10;99.90
3996;DHT22;2012;49.794;9.722;2024-02-26T10:22:05;7.20;99.90
3996;DHT22;2012;49.794;9.722;2024-02-26T10:24:33;7.30;99.90
3996;DHT22;2012;49.794;9.722;2024-02-26T10:27:02;7.40;99.90
3996;DHT22;2012;49.794;9.722;2024-02-26T10:29:29;7.40;99.90
3996;DHT22;2012;49.794;9.722;2024-02-26T10:31:57;7.50;99.90
3996;DHT22;2012;49.794;9.722;2024-02-26T10:34:24;7.50;99.90
3996;DHT22;2012;49.794;9.722;2024-02-26T10:36:51;7.40;99.90
3996;DHT22;2012;49.794;9.722;2024-02-26T10:39:20;7.40;99.90
3996;DHT22;2012;49.794;9.722;2024-02-26T10:41:49;7.50;99.90
3996;DHT22;2012;49.794;9.722;2024-02-26T10:44:16;7.50;99.90
3996;DHT22;2012;49.794;9.722;2024-02-26T10:46:47;7.60;99.90
3996;DHT22;2012;49.794;9.722;2024-02-26T10:49:16;7.70;99.90
3996;DHT22;2012;49.794;9.722;2024-02-26T10:51:54;7.70;99.90
3996;DHT22;2012;49.794;9.722;2024-02-26T10:54:24;7.70;99.90
3996;DHT22;2012;49.794;9.722;2024-02-26T10:56:53;7.70;99.90
3996;DHT22;2012;49.794;9.722;2024-02-26T10:59:22;7.70;99.90
3996;DHT22;2012;49.794;9.722;2024-02-26T11:01:50;7.70;99.90
3996;DHT22;2012;49.794;9.722;2024-02-26T11:04:18;7.70;99.90
3996;DHT22;2012;49.794;9.722;2024-02-26T11:06:46;7.70;99.90
3996;DHT22;2012;49.794;9.722;2024-02-26T11:09:15;7.80;99.90
3996;DHT22;2012;49.794;9.722;2024-02-26T11:11:44;7.90;99.90
3996;DHT22;2012;49.794;9.722;2024-02-26T11:14:12;7.90;99.90
3996;DHT22;2012;49.794;9.722;2024-02-26T11:16:40;8.00;99.90
3996;DHT22;2012;49.794;9.722;2024-02-26T11:19:10;8.00;99.90
3996;DHT22;2012;49.794;9.722;2024-02-26T11:21:39;8.00;99.90
3996;DHT22;2012;49.794;9.722;2024-02-26T11:24:13;8.00;99.90
3996;DHT22;2012;49.794;9.722;2024-02-26T11:26:52;8.10;99.90
3996;DHT22;2012;49.794;9.722;2024-02-26T11:29:41;8.20;99.90
3996;DHT22;2012;49.794;9.722;2024-02-26T11:32:09;8.30;99.90
3996;DHT22;2012;49.794;9.722;2024-02-26T11:34:37;8.30;99.90
3996;DHT22;2012;49.794;9.722;2024-02-26T11:37:13;8.30;99.90
3996;DHT22;2012;49.794;9.722;2024-02-26T11:39:41;8.50;99.90
3996;DHT22;2012;49.794;9.722;2024-02-26T11:42:09;8.60;99.90
3996;DHT22;2012;49.794;9.722;2024-02-26T11:44:36;8.60;99.90
3996;DHT22;2012;49.794;9.722;2024-02-26T11:47:13;8.70;99.90
3996;DHT22;2012;49.794;9.722;2024-02-26T11:49:40;8.90;99.90
3996;DHT22;2012;49.794;9.722;2024-02-26T11:52:08;9.00;99.90
3996;DHT22;2012;49.794;9.722;2024-02-26T11:54:52;9.10;99.90
3996;DHT22;2012;49.794;9.722;2024-02-26T11:57:30;9.10;99.90
3996;DHT22;2012;49.794;9.722;2024-02-26T12:00:15;9.10;99.90
3996;DHT22;2012;49.794;9.722;2024-02-26T12:02:50;9.00;99.90
3996;DHT22;2012;49.794;9.722;2024-02-26T12:05:32;9.00;99.90
3996;DHT22;2012;49.794;9.722;2024-02-26T12:08:05;9.10;99.90
3996;DHT22;2012;49.794;9.722;2024-02-26T12:10:39;9.20;99.90
3996;DHT22;2012;49.794;9.722;2024-02-26T12:13:17;9.30;99.90
3996;DHT22;2012;49.794;9.722;2024-02-26T12:15:58;9.40;99.90
3996;DHT22;2012;49.794;9.722;2024-02-26T12:18:26;9.40;99.90
3996;DHT22;2012;49.794;9.722;2024-02-26T12:21:03;9.50;99.90
3996;DHT22;2012;49.794;9.722;2024-02-26T12:23:31;9.50;99.90
3996;DHT22;2012;49.794;9.722;2024-02-26T12:25:59;9.50;99.90
3996;DHT22;2012;49.794;9.722;2024-02-26T12:28:30;9.60;99.90
3996;DHT22;2012;49.794;9.722;2024-02-26T12:30:58;9.60;99.90
3996;DHT22;2012;49.794;9.722;2024-02-26T12:33:27;9.60;99.90
3996;DHT22;2012;49.794;9.722;2024-02-26T12:35:55;9.70;99.90
3996;DHT22;2012;49.794;9.722;2024-02-26T12:38:23;9.80;99.90
3996;DHT22;2012;49.794;9.722;2024-02-26T12:40:50;9.80;99.90
3996;DHT22;2012;49.794;9.722;2024-02-26T12:43:17;9.90;99.90
3996;DHT22;2012;49.794;9.722;2024-02-26T12:45:44;9.90;99.90
3996;DHT22;2012;49.794;9.722;2024-02-26T12:48:14;10.00;99.90
3996;DHT22;2012;49.794;9.722;2024-02-26T12:50:45;10.10;99.90
3996;DHT22;2012;49.794;9.722;2024-02-26T12:53:14;10.20;99.90
3996;DHT22;2012;49.794;9.722;2024-02-26T12:55:41;10.20;99.90
3996;DHT22;2012;49.794;9.722;2024-02-26T12:58:09;10.10;99.90
3996;DHT22;2012;49.794;9.722;2024-02-26T13:00:36;10.00;99.90
3996;DHT22;2012;49.794;9.722;2024-02-26T13:03:04;10.00;99.90
3996;DHT22;2012;49.794;9.722;2024-02-26T13:05:31;10.00;99.90
3996;DHT22;2012;49.794;9.722;2024-02-26T13:07:59;9.90;99.90
3996;DHT22;2012;49.794;9.722;2024-02-26T13:10:26;10.00;99.90
3996;DHT22;2012;49.794;9.722;2024-02-26T13:12:53;10.00;99.90
3996;DHT22;2012;49.794;9.722;2024-02-26T13:15:21;10.10;99.90
3996;DHT22;2012;49.794;9.722;2024-02-26T13:17:49;10.20;99.90
3996;DHT22;2012;49.794;9.722;2024-02-26T13:20:29;10.30;99.90
3996;DHT22;2012;49.794;9.722;2024-02-26T13:23:05;10.40;99.90
3996;DHT22;2012;49.794;9.722;2024-02-26T13:25:34;10.50;99.90
3996;DHT22;2012;49.794;9.722;2024-02-26T13:28:07;10.60;99.90
3996;DHT22;2012;49.794;9.722;2024-02-26T13:30:35;10.60;99.90
3996;DHT22;2012;49.794;9.722;2024-02-26T13:33:10;10.50;99.90
3996;DHT22;2012;49.794;9.722;2024-02-26T13:35:38;10.60;99.90
3996;DHT22;2012;49.794;9.722;2024-02-26T13:38:06;10.60;99.90
3996;DHT22;2012;49.794;9.722;2024-02-26T13:40:33;10.90;99.90
3996;DHT22;2012;49.794;9.722;2024-02-26T13:43:01;11.10;99.90
3996;DHT22;2012;49.794;9.722;2024-02-26T13:45:28;11.40;99.90
3996;DHT22;2012;49.794;9.722;2024-02-26T13:48:05;11.50;99.90
3996;DHT22;2012;49.794;9.722;2024-02-26T13:50:33;11.60;99.90
3996;DHT22;2012;49.794;9.722;2024-02-26T13:53:00;11.60;99.90
3996;DHT22;2012;49.794;9.722;2024-02-26T13:55:27;11.80;99.90
3996;DHT22;2012;49.794;9.722;2024-02-26T13:57:57;11.90;99.90
3996;DHT22;2012;49.794;9.722;2024-02-26T14:00:25;11.80;99.90
3996;DHT22;2012;49.794;9.722;2024-02-26T14:02:52;11.70;99.90
3996;DHT22;2012;49.794;9.722;2024-02-26T14:05:19;11.60;99.90
3996;DHT22;2012;49.794;9.722;2024-02-26T14:07:46;11.60;99.90
3996;DHT22;2012;49.794;9.722;2024-02-26T14:10:17;11.70;99.90
3996;DHT22;2012;49.794;9.722;2024-02-26T14:12:44;11.80;99.90
3996;DHT22;2012;49.794;9.722;2024-02-26T14:15:11;11.90;99.90
3996;DHT22;2012;49.794;9.722;2024-02-26T14:17:39;11.90;99.90
3996;DHT22;2012;49.794;9.722;2024-02-26T14:20:06;11.90;99.90
3996;DHT22;2012;49.794;9.722;2024-02-26T14:22:36;11.80;99.90
3996;DHT22;2012;49.794;9.722;2024-02-26T14:25:03;11.80;99.90
3996;DHT22;2012;49.794;9.722;2024-02-26T14:27:30;11.80;99.90
3996;DHT22;2012;49.794;9.722;2024-02-26T14:29:57;11.80;99.90
3996;DHT22;2012;49.794;9.722;2024-02-26T14:32:24;11.90;99.90
3996;DHT22;2012;49.794;9.722;2024-02-26T14:34:51;12.10;99.90
3996;DHT22;2012;49.794;9.722;2024-02-26T14:37:19;12.20;99.90
3996;DHT22;2012;49.794;9.722;2024-02-26T14:39:46;12.10;99.90
3996;DHT22;2012;49.794;9.722;2024-02-26T14:42:14;12.10;99.90
3996;DHT22;2012;49.794;9.722;2024-02-26T14:44:44;11.90;99.90
3996;DHT22;2012;49.794;9.722;2024-02-26T14:47:14;11.90;99.90
3996;DHT22;2012;49.794;9.722;2024-02-26T14:49:41;11.80;99.90
3996;DHT22;2012;49.794;9.722;2024-02-26T14:52:09;11.80;99.90
3996;DHT22;2012;49.794;9.722;2024-02-26T14:54:36;11.90;99.90
3996;DHT22;2012;49.794;9.722;2024-02-26T14:57:06;12.10;99.90
3996;DHT22;2012;49.794;9.722;2024-02-26T14:59:34;12.30;99.90
3996;DHT22;2012;49.794;9.722;2024-02-26T15:02:03;12.40;99.90
3996;DHT22;2012;49.794;9.722;2024-02-26T15:04:30;12.50;99.90
3996;DHT22;2012;49.794;9.722;2024-02-26T15:06:57;12.40;99.90
3996;DHT22;2012;49.794;9.722;2024-02-26T15:09:25;12.30;99.90
3996;DHT22;2012;49.794;9.722;2024-02-26T15:11:52;12.50;99.90
3996;DHT22;2012;49.794;9.722;2024-02-26T15:14:19;12.50;99.90
3996;DHT22;2012;49.794;9.722;2024-02-26T15:16:45;12.60;99.90
3996;DHT22;2012;49.794;9.722;2024-02-26T15:19:12;12.70;99.90
3996;DHT22;2012;49.794;9.722;2024-02-26T15:21:44;12.70;99.90
3996;DHT22;2012;49.794;9.722;2024-02-26T15:24:11;12.60;99.90
3996;DHT22;2012;49.794;9.722;2024-02-26T15:26:39;12.40;99.90
3996;DHT22;2012;49.794;9.722;2024-02-26T15:29:09;12.30;99.90
3996;DHT22;2012;49.794;9.722;2024-02-26T15:31:36;12.10;99.90
3996;DHT22;2012;49.794;9.722;2024-02-26T15:34:03;12.10;99.90
3996;DHT22;2012;49.794;9.722;2024-02-26T15:36:31;12.10;99.90
3996;DHT22;2012;49.794;9.722;2024-02-26T15:38:58;12.00;99.90
3996;DHT22;2012;49.794;9.722;2024-02-26T15:41:25;12.00;99.90
3996;DHT22;2012;49.794;9.722;2024-02-26T15:43:52;12.10;99.90
3996;DHT22;2012;49.794;9.722;2024-02-26T15:46:19;12.00;99.90
3996;DHT22;2012;49.794;9.722;2024-02-26T15:48:46;12.00;99.90
3996;DHT22;2012;49.794;9.722;2024-02-26T15:51:23;11.90;99.90
3996;DHT22;2012;49.794;9.722;2024-02-26T15:53:53;11.80;99.90
3996;DHT22;2012;49.794;9.722;2024-02-26T15:56:21;11.80;99.90
3996;DHT22;2012;49.794;9.722;2024-02-26T15:58:52;11.60;99.90
3996;DHT22;2012;49.794;9.722;2024-02-26T16:01:19;11.60;99.90
3996;DHT22;2012;49.794;9.722;2024-02-26T16:03:52;11.60;99.90
3996;DHT22;2012;49.794;9.722;2024-02-26T16:06:31;11.60;99.90
3996;DHT22;2012;49.794;9.722;2024-02-26T16:09:00;11.60;99.90
3996;DHT22;2012;49.794;9.722;2024-02-26T16:11:27;11.50;99.90
3996;DHT22;2012;49.794;9.722;2024-02-26T16:14:09;11.40;99.90
3996;DHT22;2012;49.794;9.722;2024-02-26T16:16:42;11.40;99.90
3996;DHT22;2012;49.794;9.722;2024-02-26T16:19:13;11.30;99.90
3996;DHT22;2012;49.794;9.722;2024-02-26T16:21:46;11.30;99.90